sensor_id;sensor_type;location;lat;lon;timestamp;P1;durP1;ratioP1;P2;durP2;ratioP2
68250;SDS011;55066;51.560;4.642;2024-03-23T00:52:45;7.90;;;2.35;;
68250;SDS011;55066;51.560;4.642;2024-03-23T00:55:11;7.90;;;2.00;;
68250;SDS011;55066;51.560;4.642;2024-03-23T00:57:37;15.50;;;2.50;;
68250;SDS011;55066;51.560;4.642;2024-03-23T01:00:02;9.53;;;2.20;;
68250;SDS011;55066;51.560;4.642;2024-03-23T01:02:31;8.45;;;2.05;;
68250;SDS011;55066;51.560;4.642;2024-03-23T01:04:57;9.25;;;2.55;;
68250;SDS011;55066;51.560;4.642;2024-03-23T01:07:22;7.20;;;2.60;;
68250;SDS011;55066;51.560;4.642;2024-03-23T01:09:47;9.87;;;2.73;;
68250;SDS011;55066;51.560;4.642;2024-03-23T01:12:13;12.50;;;2.93;;
68250;SDS011;55066;51.560;4.642;2024-03-23T01:14:38;10.15;;;2.72;;
68250;SDS011;55066;51.560;4.642;2024-03-23T01:17:04;10.40;;;2.77;;
68250;SDS011;55066;51.560;4.642;2024-03-23T01:19:29;9.53;;;2.07;;
68250;SDS011;55066;51.560;4.642;2024-03-23T01:21:54;7.43;;;2.40;;
68250;SDS011;55066;51.560;4.642;2024-03-23T01:24:20;8.10;;;2.17;;
68250;SDS011;55066;51.560;4.642;2024-03-23T01:26:45;7.00;;;2.27;;
68250;SDS011;55066;51.560;4.642;2024-03-23T01:29:11;9.40;;;2.83;;
68250;SDS011;55066;51.560;4.642;2024-03-23T01:31:36;5.77;;;2.20;;
68250;SDS011;55066;51.560;4.642;2024-03-23T01:34:02;7.05;;;2.55;;
68250;SDS011;55066;51.560;4.642;2024-03-23T01:36:28;6.57;;;2.30;;
68250;SDS011;55066;51.560;4.642;2024-03-23T01:38:53;11.55;;;2.47;;
68250;SDS011;55066;51.560;4.642;2024-03-23T01:41:19;8.50;;;2.37;;
68250;SDS011;55066;51.560;4.642;2024-03-23T01:43:45;11.57;;;2.55;;
68250;SDS011;55066;51.560;4.642;2024-03-23T01:46:11;9.37;;;2.80;;
68250;SDS011;55066;51.560;4.642;2024-03-23T01:48:36;7.95;;;2.40;;
68250;SDS011;55066;51.560;4.642;2024-03-23T01:51:01;16.13;;;2.55;;
68250;SDS011;55066;51.560;4.642;2024-03-23T01:53:28;9.13;;;2.87;;
68250;SDS011;55066;51.560;4.642;2024-03-23T01:55:54;9.57;;;2.83;;
68250;SDS011;55066;51.560;4.642;2024-03-23T01:58:22;9.48;;;2.38;;
68250;SDS011;55066;51.560;4.642;2024-03-23T02:00:47;10.15;;;2.40;;
68250;SDS011;55066;51.560;4.642;2024-03-23T02:05:49;9.18;;;3.38;;
68250;SDS011;55066;51.560;4.642;2024-03-23T02:08:16;13.50;;;2.30;;
68250;SDS011;55066;51.560;4.642;2024-03-23T02:10:43;7.93;;;2.35;;
68250;SDS011;55066;51.560;4.642;2024-03-23T02:13:08;8.07;;;2.47;;
68250;SDS011;55066;51.560;4.642;2024-03-23T02:15:34;10.02;;;2.67;;
68250;SDS011;55066;51.560;4.642;2024-03-23T02:17:59;10.47;;;2.30;;
68250;SDS011;55066;51.560;4.642;2024-03-23T02:20:25;8.50;;;2.00;;
68250;SDS011;55066;51.560;4.642;2024-03-23T02:22:51;8.70;;;2.63;;
68250;SDS011;55066;51.560;4.642;2024-03-23T02:25:18;9.43;;;2.25;;
68250;SDS011;55066;51.560;4.642;2024-03-23T02:27:43;5.35;;;1.77;;
68250;SDS011;55066;51.560;4.642;2024-03-23T02:30:09;4.10;;;1.83;;
68250;SDS011;55066;51.560;4.642;2024-03-23T02:32:35;9.47;;;2.23;;
68250;SDS011;55066;51.560;4.642;2024-03-23T02:35:00;7.68;;;2.22;;
68250;SDS011;55066;51.560;4.642;2024-03-23T02:37:26;8.23;;;2.13;;
68250;SDS011;55066;51.560;4.642;2024-03-23T02:39:51;9.40;;;2.20;;
68250;SDS011;55066;51.560;4.642;2024-03-23T02:42:17;7.93;;;2.27;;
68250;SDS011;55066;51.560;4.642;2024-03-23T02:44:43;8.70;;;2.28;;
68250;SDS011;55066;51.560;4.642;2024-03-23T02:47:10;7.60;;;2.15;;
68250;SDS011;55066;51.560;4.642;2024-03-23T02:49:36;6.23;;;1.93;;
68250;SDS011;55066;51.560;4.642;2024-03-23T02:52:02;7.55;;;1.77;;
68250;SDS011;55066;51.560;4.642;2024-03-23T02:54:27;10.13;;;1.80;;
68250;SDS011;55066;51.560;4.642;2024-03-23T02:56:53;9.47;;;1.80;;
68250;SDS011;55066;51.560;4.642;2024-03-23T02:59:18;5.88;;;2.08;;
68250;SDS011;55066;51.560;4.642;2024-03-23T03:01:44;9.00;;;2.00;;
68250;SDS011;55066;51.560;4.642;2024-03-23T03:04:09;6.67;;;1.60;;
68250;SDS011;55066;51.560;4.642;2024-03-23T03:06:34;9.67;;;1.90;;
68250;SDS011;55066;51.560;4.642;2024-03-23T03:09:00;6.87;;;1.63;;
68250;SDS011;55066;51.560;4.642;2024-03-23T03:11:25;6.40;;;1.33;;
68250;SDS011;55066;51.560;4.642;2024-03-23T03:13:51;8.02;;;2.08;;
68250;SDS011;55066;51.560;4.642;2024-03-23T03:16:17;7.37;;;1.67;;
68250;SDS011;55066;51.560;4.642;2024-03-23T03:18:42;7.85;;;2.00;;
68250;SDS011;55066;51.560;4.642;2024-03-23T03:21:08;7.67;;;1.33;;
68250;SDS011;55066;51.560;4.642;2024-03-23T03:23:38;9.05;;;1.60;;
68250;SDS011;55066;51.560;4.642;2024-03-23T03:26:07;5.68;;;1.42;;
68250;SDS011;55066;51.560;4.642;2024-03-23T03:28:32;10.88;;;1.40;;
68250;SDS011;55066;51.560;4.642;2024-03-23T03:30:59;10.88;;;1.70;;
68250;SDS011;55066;51.560;4.642;2024-03-23T03:33:26;4.35;;;1.30;;
68250;SDS011;55066;51.560;4.642;2024-03-23T03:35:54;5.88;;;1.20;;
68250;SDS011;55066;51.560;4.642;2024-03-23T03:38:20;8.52;;;1.60;;
68250;SDS011;55066;51.560;4.642;2024-03-23T03:40:46;9.43;;;1.52;;
68250;SDS011;55066;51.560;4.642;2024-03-23T03:43:11;7.00;;;1.30;;
68250;SDS011;55066;51.560;4.642;2024-03-23T03:45:37;6.13;;;1.50;;
68250;SDS011;55066;51.560;4.642;2024-03-23T03:48:03;10.00;;;1.40;;
68250;SDS011;55066;51.560;4.642;2024-03-23T03:50:29;6.77;;;1.40;;
68250;SDS011;55066;51.560;4.642;2024-03-23T03:52:54;6.27;;;1.67;;
68250;SDS011;55066;51.560;4.642;2024-03-23T03:55:19;7.25;;;1.60;;
68250;SDS011;55066;51.560;4.642;2024-03-23T03:57:45;8.27;;;1.17;;
68250;SDS011;55066;51.560;4.642;2024-03-23T04:00:10;8.97;;;1.63;;
68250;SDS011;55066;51.560;4.642;2024-03-23T04:02:39;11.05;;;1.60;;
68250;SDS011;55066;51.560;4.642;2024-03-23T04:05:05;8.30;;;1.52;;
68250;SDS011;55066;51.560;4.642;2024-03-23T04:07:31;13.53;;;1.77;;
68250;SDS011;55066;51.560;4.642;2024-03-23T04:09:57;9.45;;;1.58;;
68250;SDS011;55066;51.560;4.642;2024-03-23T04:12:23;10.43;;;2.17;;
68250;SDS011;55066;51.560;4.642;2024-03-23T04:14:49;9.82;;;1.48;;
68250;SDS011;55066;51.560;4.642;2024-03-23T04:17:14;14.20;;;2.10;;
68250;SDS011;55066;51.560;4.642;2024-03-23T04:19:39;12.27;;;1.57;;
68250;SDS011;55066;51.560;4.642;2024-03-23T04:22:06;5.95;;;1.33;;
68250;SDS011;55066;51.560;4.642;2024-03-23T04:24:31;6.47;;;1.30;;
68250;SDS011;55066;51.560;4.642;2024-03-23T04:26:57;7.50;;;1.50;;
68250;SDS011;55066;51.560;4.642;2024-03-23T04:29:22;6.97;;;1.50;;
68250;SDS011;55066;51.560;4.642;2024-03-23T04:31:48;6.93;;;1.40;;
68250;SDS011;55066;51.560;4.642;2024-03-23T04:34:13;10.75;;;1.60;;
68250;SDS011;55066;51.560;4.642;2024-03-23T04:36:39;12.37;;;1.70;;
68250;SDS011;55066;51.560;4.642;2024-03-23T04:39:05;6.90;;;1.33;;
68250;SDS011;55066;51.560;4.642;2024-03-23T04:41:34;4.63;;;1.40;;
68250;SDS011;55066;51.560;4.642;2024-03-23T04:44:00;5.15;;;1.48;;
68250;SDS011;55066;51.560;4.642;2024-03-23T04:46:25;7.93;;;1.70;;
68250;SDS011;55066;51.560;4.642;2024-03-23T04:48:51;6.37;;;1.43;;
68250;SDS011;55066;51.560;4.642;2024-03-23T04:51:20;9.47;;;1.50;;
68250;SDS011;55066;51.560;4.642;2024-03-23T04:53:46;10.25;;;1.98;;
68250;SDS011;55066;51.560;4.642;2024-03-23T04:56:13;6.65;;;1.55;;
68250;SDS011;55066;51.560;4.642;2024-03-23T04:58:39;6.82;;;1.65;;
68250;SDS011;55066;51.560;4.642;2024-03-23T05:01:05;7.75;;;1.40;;
68250;SDS011;55066;51.560;4.642;2024-03-23T05:03:30;6.83;;;1.50;;
68250;SDS011;55066;51.560;4.642;2024-03-23T05:05:56;6.87;;;1.30;;
68250;SDS011;55066;51.560;4.642;2024-03-23T05:08:21;7.73;;;1.43;;
68250;SDS011;55066;51.560;4.642;2024-03-23T05:10:47;5.88;;;1.55;;
68250;SDS011;55066;51.560;4.642;2024-03-23T05:13:12;6.60;;;1.87;;
68250;SDS011;55066;51.560;4.642;2024-03-23T05:15:38;3.87;;;1.33;;
68250;SDS011;55066;51.560;4.642;2024-03-23T05:18:04;6.53;;;1.10;;
68250;SDS011;55066;51.560;4.642;2024-03-23T05:20:31;8.85;;;1.25;;
68250;SDS011;55066;51.560;4.642;2024-03-23T05:22:56;8.35;;;1.27;;
68250;SDS011;55066;51.560;4.642;2024-03-23T05:25:22;6.40;;;1.30;;
68250;SDS011;55066;51.560;4.642;2024-03-23T05:27:48;5.57;;;1.50;;
68250;SDS011;55066;51.560;4.642;2024-03-23T05:30:14;9.75;;;1.48;;
68250;SDS011;55066;51.560;4.642;2024-03-23T05:32:39;9.90;;;1.33;;
68250;SDS011;55066;51.560;4.642;2024-03-23T05:35:07;5.15;;;1.58;;
68250;SDS011;55066;51.560;4.642;2024-03-23T05:37:33;6.07;;;1.17;;
68250;SDS011;55066;51.560;4.642;2024-03-23T05:40:02;7.43;;;0.90;;
68250;SDS011;55066;51.560;4.642;2024-03-23T05:42:29;7.77;;;1.50;;
68250;SDS011;55066;51.560;4.642;2024-03-23T05:44:54;4.85;;;0.93;;
68250;SDS011;55066;51.560;4.642;2024-03-23T05:47:20;5.57;;;1.10;;
68250;SDS011;55066;51.560;4.642;2024-03-23T05:49:46;4.85;;;1.30;;
68250;SDS011;55066;51.560;4.642;2024-03-23T05:52:11;13.43;;;2.07;;
68250;SDS011;55066;51.560;4.642;2024-03-23T05:54:37;6.35;;;1.15;;
68250;SDS011;55066;51.560;4.642;2024-03-23T05:57:03;7.00;;;1.10;;
68250;SDS011;55066;51.560;4.642;2024-03-23T05:59:29;11.02;;;1.20;;
68250;SDS011;55066;51.560;4.642;2024-03-23T06:01:54;4.20;;;1.00;;
68250;SDS011;55066;51.560;4.642;2024-03-23T06:04:20;6.65;;;1.38;;
68250;SDS011;55066;51.560;4.642;2024-03-23T06:06:47;7.43;;;1.10;;
68250;SDS011;55066;51.560;4.642;2024-03-23T06:09:13;8.73;;;1.20;;
68250;SDS011;55066;51.560;4.642;2024-03-23T06:11:38;6.57;;;0.80;;
68250;SDS011;55066;51.560;4.642;2024-03-23T06:14:04;5.70;;;1.08;;
68250;SDS011;55066;51.560;4.642;2024-03-23T06:16:30;7.10;;;1.20;;
68250;SDS011;55066;51.560;4.642;2024-03-23T06:18:55;4.40;;;1.02;;
68250;SDS011;55066;51.560;4.642;2024-03-23T06:21:21;7.60;;;1.07;;
68250;SDS011;55066;51.560;4.642;2024-03-23T06:23:50;4.28;;;1.40;;
68250;SDS011;55066;51.560;4.642;2024-03-23T06:26:17;5.63;;;1.02;;
68250;SDS011;55066;51.560;4.642;2024-03-23T06:28:44;12.30;;;1.40;;
68250;SDS011;55066;51.560;4.642;2024-03-23T06:31:09;9.07;;;1.37;;
68250;SDS011;55066;51.560;4.642;2024-03-23T06:33:35;10.27;;;1.23;;
68250;SDS011;55066;51.560;4.642;2024-03-23T06:36:00;5.00;;;1.10;;
68250;SDS011;55066;51.560;4.642;2024-03-23T06:38:28;7.38;;;1.10;;
68250;SDS011;55066;51.560;4.642;2024-03-23T06:40:53;6.70;;;1.23;;
68250;SDS011;55066;51.560;4.642;2024-03-23T06:43:19;10.13;;;1.50;;
68250;SDS011;55066;51.560;4.642;2024-03-23T06:45:44;3.78;;;1.30;;
68250;SDS011;55066;51.560;4.642;2024-03-23T06:48:18;8.13;;;1.48;;
68250;SDS011;55066;51.560;4.642;2024-03-23T06:50:44;6.57;;;1.50;;
68250;SDS011;55066;51.560;4.642;2024-03-23T06:53:11;7.70;;;1.38;;
68250;SDS011;55066;51.560;4.642;2024-03-23T06:55:37;7.88;;;1.23;;
68250;SDS011;55066;51.560;4.642;2024-03-23T06:58:02;5.60;;;1.30;;
68250;SDS011;55066;51.560;4.642;2024-03-23T07:00:29;6.38;;;1.10;;
68250;SDS011;55066;51.560;4.642;2024-03-23T07:02:54;4.63;;;0.93;;
68250;SDS011;55066;51.560;4.642;2024-03-23T07:05:20;4.87;;;1.20;;
68250;SDS011;55066;51.560;4.642;2024-03-23T07:07:45;3.53;;;0.85;;
68250;SDS011;55066;51.560;4.642;2024-03-23T07:10:11;6.67;;;1.10;;
68250;SDS011;55066;51.560;4.642;2024-03-23T07:12:37;9.13;;;1.60;;
68250;SDS011;55066;51.560;4.642;2024-03-23T07:15:03;9.57;;;1.20;;
68250;SDS011;55066;51.560;4.642;2024-03-23T07:17:28;5.28;;;1.00;;
68250;SDS011;55066;51.560;4.642;2024-03-23T07:19:54;1.67;;;0.60;;
68250;SDS011;55066;51.560;4.642;2024-03-23T07:22:19;7.07;;;0.83;;
68250;SDS011;55066;51.560;4.642;2024-03-23T07:24:45;7.43;;;0.90;;
68250;SDS011;55066;51.560;4.642;2024-03-23T07:27:10;7.30;;;1.15;;
68250;SDS011;55066;51.560;4.642;2024-03-23T07:29:36;3.90;;;0.80;;
68250;SDS011;55066;51.560;4.642;2024-03-23T07:32:01;5.00;;;1.00;;
68250;SDS011;55066;51.560;4.642;2024-03-23T07:34:27;7.93;;;1.40;;
68250;SDS011;55066;51.560;4.642;2024-03-23T07:36:53;5.45;;;0.95;;
68250;SDS011;55066;51.560;4.642;2024-03-23T07:39:19;4.20;;;1.20;;
68250;SDS011;55066;51.560;4.642;2024-03-23T07:41:44;8.80;;;1.10;;
68250;SDS011;55066;51.560;4.642;2024-03-23T07:44:10;9.93;;;1.50;;
68250;SDS011;55066;51.560;4.642;2024-03-23T07:46:36;6.65;;;0.65;;
68250;SDS011;55066;51.560;4.642;2024-03-23T07:49:01;9.73;;;1.67;;
68250;SDS011;55066;51.560;4.642;2024-03-23T07:51:29;9.95;;;1.00;;
68250;SDS011;55066;51.560;4.642;2024-03-23T07:53:54;5.87;;;1.30;;
68250;SDS011;55066;51.560;4.642;2024-03-23T07:56:20;11.80;;;1.50;;
68250;SDS011;55066;51.560;4.642;2024-03-23T07:58:46;6.82;;;1.17;;
68250;SDS011;55066;51.560;4.642;2024-03-23T08:01:13;7.18;;;1.33;;
68250;SDS011;55066;51.560;4.642;2024-03-23T08:03:40;7.25;;;1.27;;
68250;SDS011;55066;51.560;4.642;2024-03-23T08:08:40;2.83;;;0.52;;
68250;SDS011;55066;51.560;4.642;2024-03-23T08:11:06;8.50;;;1.10;;
68250;SDS011;55066;51.560;4.642;2024-03-23T08:13:32;5.60;;;0.80;;
68250;SDS011;55066;51.560;4.642;2024-03-23T08:15:58;4.50;;;0.70;;
68250;SDS011;55066;51.560;4.642;2024-03-23T08:18:24;5.37;;;0.90;;
68250;SDS011;55066;51.560;4.642;2024-03-23T08:21:05;5.47;;;1.13;;
68250;SDS011;55066;51.560;4.642;2024-03-23T08:23:32;7.05;;;1.00;;
68250;SDS011;55066;51.560;4.642;2024-03-23T08:26:04;8.23;;;1.30;;
68250;SDS011;55066;51.560;4.642;2024-03-23T08:28:31;7.38;;;1.23;;
68250;SDS011;55066;51.560;4.642;2024-03-23T08:31:01;6.47;;;0.98;;
68250;SDS011;55066;51.560;4.642;2024-03-23T08:33:30;2.90;;;0.60;;
68250;SDS011;55066;51.560;4.642;2024-03-23T08:36:07;8.57;;;1.80;;
68250;SDS011;55066;51.560;4.642;2024-03-23T08:38:33;5.47;;;0.80;;
68250;SDS011;55066;51.560;4.642;2024-03-23T08:43:28;4.90;;;1.47;;
68250;SDS011;55066;51.560;4.642;2024-03-23T08:46:03;7.13;;;1.50;;
68250;SDS011;55066;51.560;4.642;2024-03-23T08:48:40;4.10;;;0.73;;
68250;SDS011;55066;51.560;4.642;2024-03-23T08:51:12;10.02;;;1.30;;
68250;SDS011;55066;51.560;4.642;2024-03-23T08:53:38;5.50;;;1.10;;
68250;SDS011;55066;51.560;4.642;2024-03-23T08:56:05;8.80;;;1.23;;
68250;SDS011;55066;51.560;4.642;2024-03-23T08:58:31;4.30;;;0.85;;
68250;SDS011;55066;51.560;4.642;2024-03-23T09:01:31;9.23;;;1.50;;
68250;SDS011;55066;51.560;4.642;2024-03-23T09:03:49;7.10;;;1.10;;
68250;SDS011;55066;51.560;4.642;2024-03-23T09:06:15;5.40;;;1.07;;
68250;SDS011;55066;51.560;4.642;2024-03-23T09:08:40;9.02;;;0.98;;
68250;SDS011;55066;51.560;4.642;2024-03-23T09:11:07;6.57;;;1.27;;
68250;SDS011;55066;51.560;4.642;2024-03-23T09:13:34;3.72;;;0.80;;
68250;SDS011;55066;51.560;4.642;2024-03-23T09:16:02;6.53;;;1.23;;
68250;SDS011;55066;51.560;4.642;2024-03-23T09:18:35;4.55;;;0.93;;
68250;SDS011;55066;51.560;4.642;2024-03-23T09:21:01;4.03;;;0.90;;
68250;SDS011;55066;51.560;4.642;2024-03-23T09:23:27;3.83;;;0.80;;
68250;SDS011;55066;51.560;4.642;2024-03-23T09:25:53;7.03;;;1.00;;
68250;SDS011;55066;51.560;4.642;2024-03-23T09:28:18;6.87;;;1.13;;
68250;SDS011;55066;51.560;4.642;2024-03-23T09:30:44;10.20;;;1.00;;
68250;SDS011;55066;51.560;4.642;2024-03-23T09:33:10;4.18;;;0.88;;
68250;SDS011;55066;51.560;4.642;2024-03-23T09:35:36;6.47;;;1.47;;
68250;SDS011;55066;51.560;4.642;2024-03-23T09:38:02;4.47;;;0.88;;
68250;SDS011;55066;51.560;4.642;2024-03-23T09:40:28;7.07;;;1.40;;
68250;SDS011;55066;51.560;4.642;2024-03-23T09:42:54;8.30;;;1.10;;
68250;SDS011;55066;51.560;4.642;2024-03-23T09:45:21;7.28;;;1.02;;
68250;SDS011;55066;51.560;4.642;2024-03-23T09:47:51;6.43;;;1.17;;
68250;SDS011;55066;51.560;4.642;2024-03-23T09:50:17;9.30;;;1.60;;
68250;SDS011;55066;51.560;4.642;2024-03-23T09:52:43;8.20;;;1.10;;
68250;SDS011;55066;51.560;4.642;2024-03-23T09:55:10;6.65;;;0.77;;
68250;SDS011;55066;51.560;4.642;2024-03-23T09:57:37;6.37;;;0.67;;
68250;SDS011;55066;51.560;4.642;2024-03-23T10:00:03;9.35;;;1.17;;
68250;SDS011;55066;51.560;4.642;2024-03-23T10:02:32;4.40;;;1.08;;
68250;SDS011;55066;51.560;4.642;2024-03-23T10:04:58;8.10;;;1.50;;
68250;SDS011;55066;51.560;4.642;2024-03-23T10:07:25;2.55;;;0.70;;
68250;SDS011;55066;51.560;4.642;2024-03-23T10:09:50;4.22;;;0.90;;
68250;SDS011;55066;51.560;4.642;2024-03-23T10:12:17;6.13;;;1.23;;
68250;SDS011;55066;51.560;4.642;2024-03-23T10:14:44;4.68;;;1.15;;
68250;SDS011;55066;51.560;4.642;2024-03-23T10:19:49;11.43;;;1.40;;
68250;SDS011;55066;51.560;4.642;2024-03-23T10:22:20;6.97;;;1.33;;
68250;SDS011;55066;51.560;4.642;2024-03-23T10:24:46;10.25;;;1.02;;
68250;SDS011;55066;51.560;4.642;2024-03-23T10:27:15;2.85;;;0.80;;
68250;SDS011;55066;51.560;4.642;2024-03-23T10:29:48;3.10;;;0.77;;
68250;SDS011;55066;51.560;4.642;2024-03-23T10:32:15;10.77;;;1.15;;
68250;SDS011;55066;51.560;4.642;2024-03-23T10:34:42;5.25;;;1.20;;
68250;SDS011;55066;51.560;4.642;2024-03-23T10:37:08;3.60;;;0.70;;
68250;SDS011;55066;51.560;4.642;2024-03-23T10:39:34;6.63;;;1.10;;
68250;SDS011;55066;51.560;4.642;2024-03-23T10:42:03;7.90;;;0.80;;
68250;SDS011;55066;51.560;4.642;2024-03-23T10:44:42;3.63;;;0.70;;
68250;SDS011;55066;51.560;4.642;2024-03-23T10:47:07;4.83;;;0.80;;
68250;SDS011;55066;51.560;4.642;2024-03-23T10:49:35;6.70;;;0.60;;
68250;SDS011;55066;51.560;4.642;2024-03-23T10:52:03;4.38;;;0.80;;
68250;SDS011;55066;51.560;4.642;2024-03-23T10:54:30;5.20;;;0.70;;
68250;SDS011;55066;51.560;4.642;2024-03-23T10:57:02;5.43;;;0.70;;
68250;SDS011;55066;51.560;4.642;2024-03-23T10:59:31;2.73;;;0.60;;
68250;SDS011;55066;51.560;4.642;2024-03-23T11:01:59;5.95;;;1.20;;
68250;SDS011;55066;51.560;4.642;2024-03-23T11:04:35;6.07;;;0.60;;
68250;SDS011;55066;51.560;4.642;2024-03-23T11:07:28;2.67;;;0.57;;
68250;SDS011;55066;51.560;4.642;2024-03-23T11:09:49;8.35;;;1.00;;
68250;SDS011;55066;51.560;4.642;2024-03-23T11:15:34;5.45;;;0.75;;
68250;SDS011;55066;51.560;4.642;2024-03-23T11:17:37;2.75;;;0.60;;
68250;SDS011;55066;51.560;4.642;2024-03-23T11:20:04;7.53;;;1.33;;
68250;SDS011;55066;51.560;4.642;2024-03-23T11:25:21;6.20;;;0.90;;
68250;SDS011;55066;51.560;4.642;2024-03-23T11:27:51;5.18;;;0.90;;
68250;SDS011;55066;51.560;4.642;2024-03-23T11:30:24;9.15;;;1.70;;
68250;SDS011;55066;51.560;4.642;2024-03-23T11:32:51;6.68;;;0.50;;
68250;SDS011;55066;51.560;4.642;2024-03-23T11:35:25;8.07;;;1.27;;
68250;SDS011;55066;51.560;4.642;2024-03-23T11:38:04;12.33;;;1.13;;
68250;SDS011;55066;51.560;4.642;2024-03-23T11:40:30;7.68;;;1.20;;
68250;SDS011;55066;51.560;4.642;2024-03-23T11:43:00;7.18;;;1.08;;
68250;SDS011;55066;51.560;4.642;2024-03-23T11:45:36;5.32;;;1.33;;
68250;SDS011;55066;51.560;4.642;2024-03-23T11:50:42;8.97;;;0.70;;
68250;SDS011;55066;51.560;4.642;2024-03-23T11:53:22;4.20;;;0.82;;
68250;SDS011;55066;51.560;4.642;2024-03-23T11:58:16;9.98;;;1.60;;
68250;SDS011;55066;51.560;4.642;2024-03-23T12:00:49;5.63;;;0.98;;
68250;SDS011;55066;51.560;4.642;2024-03-23T12:03:18;13.60;;;0.90;;
68250;SDS011;55066;51.560;4.642;2024-03-23T12:05:50;4.43;;;1.00;;
68250;SDS011;55066;51.560;4.642;2024-03-23T12:08:21;9.45;;;1.05;;
68250;SDS011;55066;51.560;4.642;2024-03-23T12:11:08;6.45;;;1.23;;
68250;SDS011;55066;51.560;4.642;2024-03-23T12:13:36;5.18;;;0.90;;
68250;SDS011;55066;51.560;4.642;2024-03-23T12:16:12;6.37;;;0.70;;
68250;SDS011;55066;51.560;4.642;2024-03-23T12:18:42;7.20;;;1.20;;
68250;SDS011;55066;51.560;4.642;2024-03-23T12:21:09;9.93;;;1.40;;
68250;SDS011;55066;51.560;4.642;2024-03-23T12:23:34;4.77;;;0.80;;
68250;SDS011;55066;51.560;4.642;2024-03-23T12:26:01;3.10;;;0.80;;
68250;SDS011;55066;51.560;4.642;2024-03-23T12:28:26;9.50;;;1.00;;
68250;SDS011;55066;51.560;4.642;2024-03-23T12:30:52;7.97;;;1.27;;
68250;SDS011;55066;51.560;4.642;2024-03-23T12:33:19;3.85;;;0.98;;
68250;SDS011;55066;51.560;4.642;2024-03-23T12:35:44;3.33;;;0.90;;
68250;SDS011;55066;51.560;4.642;2024-03-23T12:38:10;3.70;;;0.60;;
68250;SDS011;55066;51.560;4.642;2024-03-23T12:40:36;4.18;;;0.65;;
68250;SDS011;55066;51.560;4.642;2024-03-23T12:43:02;3.13;;;0.63;;
68250;SDS011;55066;51.560;4.642;2024-03-23T12:45:28;2.80;;;0.50;;
68250;SDS011;55066;51.560;4.642;2024-03-23T12:47:53;4.70;;;0.70;;
68250;SDS011;55066;51.560;4.642;2024-03-23T12:50:19;1.90;;;0.77;;
68250;SDS011;55066;51.560;4.642;2024-03-23T12:52:47;5.85;;;1.00;;
68250;SDS011;55066;51.560;4.642;2024-03-23T12:55:12;5.40;;;0.98;;
68250;SDS011;55066;51.560;4.642;2024-03-23T12:57:38;5.63;;;1.13;;
68250;SDS011;55066;51.560;4.642;2024-03-23T13:00:03;7.03;;;0.80;;
68250;SDS011;55066;51.560;4.642;2024-03-23T13:02:30;3.17;;;0.75;;
68250;SDS011;55066;51.560;4.642;2024-03-23T13:04:55;5.70;;;1.10;;
68250;SDS011;55066;51.560;4.642;2024-03-23T13:07:22;3.65;;;0.80;;
68250;SDS011;55066;51.560;4.642;2024-03-23T13:09:52;7.27;;;1.13;;
68250;SDS011;55066;51.560;4.642;2024-03-23T13:12:18;7.05;;;1.02;;
68250;SDS011;55066;51.560;4.642;2024-03-23T13:14:44;5.47;;;1.00;;
68250;SDS011;55066;51.560;4.642;2024-03-23T13:17:10;10.85;;;1.20;;
68250;SDS011;55066;51.560;4.642;2024-03-23T13:19:36;4.90;;;0.80;;
68250;SDS011;55066;51.560;4.642;2024-03-23T13:22:02;2.95;;;0.65;;
68250;SDS011;55066;51.560;4.642;2024-03-23T13:24:29;8.18;;;0.80;;
68250;SDS011;55066;51.560;4.642;2024-03-23T13:26:56;6.40;;;0.93;;
68250;SDS011;55066;51.560;4.642;2024-03-23T13:29:22;4.88;;;0.80;;
68250;SDS011;55066;51.560;4.642;2024-03-23T13:31:49;5.18;;;0.90;;
68250;SDS011;55066;51.560;4.642;2024-03-23T13:34:16;6.75;;;1.23;;
68250;SDS011;55066;51.560;4.642;2024-03-23T13:36:43;5.55;;;1.02;;
68250;SDS011;55066;51.560;4.642;2024-03-23T13:39:10;4.50;;;0.85;;
68250;SDS011;55066;51.560;4.642;2024-03-23T13:41:37;6.93;;;1.20;;
68250;SDS011;55066;51.560;4.642;2024-03-23T13:44:07;5.60;;;1.05;;
68250;SDS011;55066;51.560;4.642;2024-03-23T13:46:35;6.70;;;1.25;;
68250;SDS011;55066;51.560;4.642;2024-03-23T13:49:01;3.63;;;0.80;;
68250;SDS011;55066;51.560;4.642;2024-03-23T13:51:26;3.35;;;1.08;;
68250;SDS011;55066;51.560;4.642;2024-03-23T13:53:55;3.50;;;0.70;;
68250;SDS011;55066;51.560;4.642;2024-03-23T13:56:30;4.38;;;0.82;;
68250;SDS011;55066;51.560;4.642;2024-03-23T13:58:55;3.33;;;1.00;;
68250;SDS011;55066;51.560;4.642;2024-03-23T14:01:21;4.25;;;1.10;;
68250;SDS011;55066;51.560;4.642;2024-03-23T14:03:47;6.73;;;1.50;;
68250;SDS011;55066;51.560;4.642;2024-03-23T14:06:13;3.40;;;0.80;;
68250;SDS011;55066;51.560;4.642;2024-03-23T14:08:39;5.63;;;1.30;;
68250;SDS011;55066;51.560;4.642;2024-03-23T14:11:08;5.38;;;0.75;;
68250;SDS011;55066;51.560;4.642;2024-03-23T14:13:34;5.27;;;0.87;;
68250;SDS011;55066;51.560;4.642;2024-03-23T14:16:00;7.32;;;0.82;;
68250;SDS011;55066;51.560;4.642;2024-03-23T14:18:26;3.40;;;0.68;;
68250;SDS011;55066;51.560;4.642;2024-03-23T14:20:51;5.67;;;0.97;;
68250;SDS011;55066;51.560;4.642;2024-03-23T14:23:19;4.88;;;0.98;;
68250;SDS011;55066;51.560;4.642;2024-03-23T14:25:44;4.20;;;0.77;;
68250;SDS011;55066;51.560;4.642;2024-03-23T14:28:10;3.10;;;0.80;;
68250;SDS011;55066;51.560;4.642;2024-03-23T14:30:40;3.83;;;0.87;;
68250;SDS011;55066;51.560;4.642;2024-03-23T14:33:08;7.20;;;1.00;;
68250;SDS011;55066;51.560;4.642;2024-03-23T14:35:35;5.65;;;1.02;;
68250;SDS011;55066;51.560;4.642;2024-03-23T14:38:01;3.70;;;0.80;;
68250;SDS011;55066;51.560;4.642;2024-03-23T14:40:27;2.08;;;0.55;;
68250;SDS011;55066;51.560;4.642;2024-03-23T14:42:53;3.27;;;0.67;;
68250;SDS011;55066;51.560;4.642;2024-03-23T14:45:20;2.95;;;0.60;;
68250;SDS011;55066;51.560;4.642;2024-03-23T14:47:47;3.10;;;0.40;;
68250;SDS011;55066;51.560;4.642;2024-03-23T14:50:12;2.57;;;0.50;;
68250;SDS011;55066;51.560;4.642;2024-03-23T14:52:41;0.95;;;0.43;;
68250;SDS011;55066;51.560;4.642;2024-03-23T14:55:07;2.47;;;0.77;;
68250;SDS011;55066;51.560;4.642;2024-03-23T14:57:34;2.15;;;0.60;;
68250;SDS011;55066;51.560;4.642;2024-03-23T15:00:00;1.88;;;0.60;;
68250;SDS011;55066;51.560;4.642;2024-03-23T15:02:25;5.80;;;1.20;;
68250;SDS011;55066;51.560;4.642;2024-03-23T15:04:52;5.90;;;1.10;;
68250;SDS011;55066;51.560;4.642;2024-03-23T15:07:19;4.15;;;1.30;;
68250;SDS011;55066;51.560;4.642;2024-03-23T15:09:44;5.37;;;1.10;;
68250;SDS011;55066;51.560;4.642;2024-03-23T15:12:10;4.93;;;0.77;;
68250;SDS011;55066;51.560;4.642;2024-03-23T15:14:35;4.07;;;1.20;;
68250;SDS011;55066;51.560;4.642;2024-03-23T15:17:01;2.65;;;0.45;;
68250;SDS011;55066;51.560;4.642;2024-03-23T15:19:29;1.77;;;0.60;;
68250;SDS011;55066;51.560;4.642;2024-03-23T15:21:55;2.28;;;0.77;;
68250;SDS011;55066;51.560;4.642;2024-03-23T15:24:21;4.43;;;1.10;;
68250;SDS011;55066;51.560;4.642;2024-03-23T15:26:47;2.00;;;0.80;;
68250;SDS011;55066;51.560;4.642;2024-03-23T15:29:14;3.93;;;0.50;;
68250;SDS011;55066;51.560;4.642;2024-03-23T15:31:42;2.03;;;0.50;;
68250;SDS011;55066;51.560;4.642;2024-03-23T15:34:08;5.28;;;0.88;;
68250;SDS011;55066;51.560;4.642;2024-03-23T15:36:37;1.15;;;0.50;;
68250;SDS011;55066;51.560;4.642;2024-03-23T15:39:04;5.87;;;0.70;;
68250;SDS011;55066;51.560;4.642;2024-03-23T15:41:30;5.10;;;1.00;;
68250;SDS011;55066;51.560;4.642;2024-03-23T15:43:56;1.67;;;0.60;;
68250;SDS011;55066;51.560;4.642;2024-03-23T15:46:21;3.92;;;0.80;;
68250;SDS011;55066;51.560;4.642;2024-03-23T15:48:47;2.63;;;0.60;;
68250;SDS011;55066;51.560;4.642;2024-03-23T15:51:13;3.03;;;0.75;;
68250;SDS011;55066;51.560;4.642;2024-03-23T15:53:39;4.80;;;0.93;;
68250;SDS011;55066;51.560;4.642;2024-03-23T15:56:06;6.57;;;0.70;;